aviador You're here:

KEPH Decoded Metar

EPHRATA in WA, USA
Report Time2017-06-25 12:53:00
UTC Time2017-06-25 14:00:00
Flight Rules Old
Wind010° at 06 kt
W.Decomp.*RWY 03: 4.9 kt HW 3.5 kt LCW
RWY 04: 4.2 kt HW 4.3 kt LCW
RWY 29: 2.6 kt HW 5.4 kt RCW
W.Rank010° ranks 3
Current wind is below 010° avg. (6.8)
Visibility9999 m
Phenomena:N/A
Clouds:N/A
Expected CloudBase > 6,000 ft AGL from Temp-Dew spread
CeilingNone
Temp17°C (ISA +4)
Dew Point02°C (37% RH)
AAT13.2°C
QNH1018 hPa
Density Alt1,719 ft
Elevation1,257 ft
Report Wrong Elevation
Raw Report
METAR KEPH 251253Z AUTO 01006KT 10SM CLR 17/02 A3006 RMK AO2 SLP170
T01720017 $=

Extra information for KEPH:More info

Metar Taf Metar & Taf Last 4 Metars F.Rules Stats Wind Profile Meteogram Temp Stats Airport Information Weather charts Add Link Nearby VenuesMetar ALERT Operation Metar Decoded Social comments

AIRNAV info for KEPH